Time;durP1;ratioP1;P1;durP2;ratioP2;P2;SDS_P1;SDS_P2;PMS_P1;PMS_P2;Temp;Humidity;BMP_temperature;BMP_pressure;BME280_temperature;BME280_humidity;BME280_pressure;Samples;Min_cycle;Max_cycle;Signal;HPM_P1;HPM_P2
2021/12/03 00:02:25;;;;;;;10.50;8.20;;;;;;;0.07;62.87;96601.66;103974;1351;23132;-59
2021/12/03 00:04:53;;;;;;;11.80;8.70;;;;;;;0.08;62.89;96601.44;103982;1351;22992;-60
2021/12/03 00:07:21;;;;;;;13.80;8.80;;;;;;;0.07;62.77;96606.42;103971;1351;22330;-59
2021/12/03 00:09:49;;;;;;;12.30;8.10;;;;;;;0.07;62.63;96607.95;103976;1351;23101;-60
2021/12/03 00:12:17;;;;;;;12.90;7.90;;;;;;;0.04;62.89;96612.19;103988;1351;22394;-59
2021/12/03 00:14:47;;;;;;;13.20;7.90;;;;;;;0.04;62.80;96619.33;103997;1351;23292;-60
2021/12/03 00:17:21;;;;;;;10.20;8.00;;;;;;;0.01;62.77;96628.06;104011;1351;23136;-60
2021/12/03 00:19:54;;;;;;;11.10;8.20;;;;;;;0.01;62.81;96632.20;103978;1351;22435;-59
2021/12/03 00:22:26;;;;;;;10.70;8.10;;;;;;;-0.01;62.92;96632.98;103973;1351;22529;-59
2021/12/03 00:25:03;;;;;;;10.70;8.30;;;;;;;-0.04;63.04;96631.45;103946;1351;23083;-60
2021/12/03 00:27:36;;;;;;;13.60;8.20;;;;;;;-0.05;63.01;96639.17;103962;1351;22417;-61
2021/12/03 00:30:12;;;;;;;11.20;8.60;;;;;;;-0.07;63.25;96642.19;103992;1351;22888;-60
2021/12/03 00:32:45;;;;;;;10.90;8.00;;;;;;;-0.10;63.29;96649.27;103961;1351;22365;-60
2021/12/03 00:35:17;;;;;;;10.80;8.90;;;;;;;-0.11;63.42;96650.08;104013;1350;22786;-60
2021/12/03 00:37:51;;;;;;;14.50;10.00;;;;;;;-0.10;63.67;96651.63;103984;1351;22565;-59
2021/12/03 00:40:29;;;;;;;11.80;8.20;;;;;;;-0.10;63.52;96654.14;104000;1351;22441;-59
2021/12/03 00:42:59;;;;;;;12.70;9.60;;;;;;;-0.10;63.61;96655.70;104042;1351;23180;-59
2021/12/03 00:45:31;;;;;;;12.50;9.80;;;;;;;-0.11;63.76;96666.65;103991;1350;22554;-59
2021/12/03 00:48:05;;;;;;;16.80;9.90;;;;;;;-0.12;63.81;96676.98;103997;1351;22308;-59
2021/12/03 00:50:38;;;;;;;12.30;9.10;;;;;;;-0.13;64.01;96684.12;104007;1351;22551;-59
2021/12/03 00:53:12;;;;;;;13.70;8.60;;;;;;;-0.10;64.12;96687.46;103965;1351;22388;-60
2021/12/03 00:55:45;;;;;;;11.10;7.90;;;;;;;-0.08;64.20;96684.77;103975;1351;22446;-58
2021/12/03 00:58:14;;;;;;;11.70;8.80;;;;;;;-0.06;64.20;96687.73;103869;1351;23276;-60
2021/12/03 01:00:52;;;;;;;10.50;8.40;;;;;;;-0.06;64.29;96691.72;103999;1351;22556;-60
2021/12/03 01:03:26;;;;;;;13.20;10.50;;;;;;;-0.06;64.07;96694.09;104000;1351;22253;-60
2021/12/03 01:06:00;;;;;;;15.50;9.50;;;;;;;-0.08;64.22;96700.40;103976;1351;22426;-60
2021/12/03 01:08:31;;;;;;;13.50;9.90;;;;;;;-0.09;64.24;96706.00;104006;1351;22377;-60
2021/12/03 01:10:59;;;;;;;16.20;10.90;;;;;;;-0.12;64.35;96711.88;103990;1351;23119;-60
2021/12/03 01:13:27;;;;;;;13.60;9.90;;;;;;;-0.12;64.34;96710.91;103998;1351;22479;-58
2021/12/03 01:15:55;;;;;;;14.60;10.10;;;;;;;-0.13;64.31;96709.21;103996;1351;22428;-58
2021/12/03 01:18:23;;;;;;;15.00;10.40;;;;;;;-0.14;64.42;96707.04;104008;1351;22431;-58
2021/12/03 01:20:52;;;;;;;13.30;10.00;;;;;;;-0.15;64.68;96709.48;103993;1351;23146;-60
2021/12/03 01:23:20;;;;;;;10.60;8.80;;;;;;;-0.18;64.62;96715.34;104003;1351;23048;-59
2021/12/03 01:25:49;;;;;;;13.20;9.10;;;;;;;-0.15;64.98;96716.50;103982;1351;22783;-59
2021/12/03 01:28:17;;;;;;;11.80;9.60;;;;;;;-0.13;64.82;96712.45;103944;1351;22370;-60
2021/12/03 01:30:46;;;;;;;14.40;9.90;;;;;;;-0.14;64.96;96707.24;103990;1351;22513;-60
2021/12/03 01:33:14;;;;;;;13.20;10.00;;;;;;;-0.15;64.90;96708.94;104016;1351;22455;-58
2021/12/03 01:35:42;;;;;;;13.70;9.20;;;;;;;-0.18;65.05;96709.09;103992;1350;22354;-59
2021/12/03 01:38:10;;;;;;;11.50;8.40;;;;;;;-0.21;64.87;96711.98;104008;1351;22488;-59
2021/12/03 01:40:40;;;;;;;11.90;8.90;;;;;;;-0.23;64.92;96709.92;103988;1351;22605;-58
2021/12/03 01:43:12;;;;;;;11.80;9.20;;;;;;;-0.26;64.91;96712.70;104010;1351;22530;-59
2021/12/03 01:45:41;;;;;;;12.00;8.60;;;;;;;-0.29;64.85;96711.20;103992;1351;22348;-59
2021/12/03 01:48:09;;;;;;;11.20;8.20;;;;;;;-0.32;65.07;96709.56;104005;1351;22422;-59
2021/12/03 01:50:41;;;;;;;13.20;8.40;;;;;;;-0.31;65.17;96713.00;104003;1350;22413;-58
2021/12/03 01:53:12;;;;;;;13.10;8.10;;;;;;;-0.30;65.34;96718.09;104018;1351;22489;-59
2021/12/03 01:55:42;;;;;;;11.80;8.10;;;;;;;-0.28;65.23;96722.12;104013;1351;22677;-58
2021/12/03 01:58:11;;;;;;;11.50;7.70;;;;;;;-0.26;65.31;96722.23;103991;1351;22989;-58
2021/12/03 02:00:53;;;;;;;10.00;7.50;;;;;;;-0.26;65.31;96728.17;104001;1351;22711;-59
2021/12/03 02:03:24;;;;;;;14.80;8.20;;;;;;;-0.26;64.83;96735.95;104002;1351;23163;-61
2021/12/03 02:05:53;;;;;;;11.10;8.60;;;;;;;-0.29;64.63;96736.09;103996;1351;22362;-59
2021/12/03 02:08:21;;;;;;;13.90;9.30;;;;;;;-0.34;64.90;96745.08;104008;1351;22430;-59
2021/12/03 02:10:51;;;;;;;12.20;9.20;;;;;;;-0.36;64.80;96753.43;104033;1351;22420;-58
2021/12/03 02:13:19;;;;;;;12.30;8.80;;;;;;;-0.40;65.03;96761.34;103987;1351;22347;-59
2021/12/03 02:15:48;;;;;;;11.20;8.20;;;;;;;-0.40;65.01;96766.74;103998;1351;22421;-59
2021/12/03 02:18:17;;;;;;;11.60;8.30;;;;;;;-0.40;65.01;96771.19;104007;1351;22478;-58
2021/12/03 02:20:51;;;;;;;13.90;8.70;;;;;;;-0.43;65.17;96770.75;104016;1351;22393;-58
2021/12/03 02:23:21;;;;;;;10.00;7.50;;;;;;;-0.43;64.96;96782.12;103714;1351;413876;-58
2021/12/03 02:25:51;;;;;;;10.70;7.40;;;;;;;-0.42;65.35;96780.27;104002;1351;22314;-59
2021/12/03 02:28:23;;;;;;;11.40;8.80;;;;;;;-0.42;65.17;96782.86;104006;1351;23105;-59
2021/12/03 02:30:52;;;;;;;11.30;8.00;;;;;;;-0.44;65.29;96792.16;104012;1351;22640;-59
2021/12/03 02:33:21;;;;;;;10.60;7.60;;;;;;;-0.45;65.47;96799.16;104008;1350;22248;-59
2021/12/03 02:35:50;;;;;;;11.00;8.50;;;;;;;-0.49;65.54;96803.95;104028;1351;23151;-59
2021/12/03 02:38:22;;;;;;;11.40;9.00;;;;;;;-0.53;65.57;96807.14;103996;1348;22431;-59
2021/12/03 02:40:54;;;;;;;12.70;9.90;;;;;;;-0.56;65.49;96814.06;103950;1351;23172;-59
2021/12/03 02:43:23;;;;;;;13.50;10.10;;;;;;;-0.58;65.53;96819.02;104025;1351;22445;-59
2021/12/03 02:45:52;;;;;;;13.30;10.00;;;;;;;-0.58;65.78;96822.66;103996;1349;22400;-58
2021/12/03 02:48:21;;;;;;;13.80;9.90;;;;;;;-0.59;65.84;96824.40;104003;1351;22467;-59
2021/12/03 02:50:50;;;;;;;14.50;10.60;;;;;;;-0.55;66.20;96826.86;103964;1351;22267;-57
2021/12/03 02:53:18;;;;;;;11.90;9.40;;;;;;;-0.56;66.03;96828.40;103992;1351;22624;-59
2021/12/03 02:55:47;;;;;;;14.80;11.30;;;;;;;-0.57;66.19;96832.89;103989;1350;22467;-59
2021/12/03 02:58:15;;;;;;;17.00;11.50;;;;;;;-0.60;66.18;96832.70;104008;1351;22440;-59
2021/12/03 03:00:43;;;;;;;14.80;11.30;;;;;;;-0.63;66.30;96833.90;104007;1351;22443;-58
2021/12/03 03:03:12;;;;;;;15.00;11.10;;;;;;;-0.65;66.30;96841.55;104001;1350;22418;-58
2021/12/03 03:05:40;;;;;;;16.40;11.80;;;;;;;-0.69;66.32;96840.58;103999;1351;22323;-58
2021/12/03 03:08:08;;;;;;;12.40;9.80;;;;;;;-0.71;66.50;96835.32;103992;1351;22447;-59
2021/12/03 03:10:41;;;;;;;13.80;9.10;;;;;;;-0.74;66.86;96835.14;104017;1351;22399;-58
2021/12/03 03:13:09;;;;;;;9.60;8.10;;;;;;;-0.73;67.04;96840.42;103985;1350;22549;-58
2021/12/03 03:15:39;;;;;;;12.60;9.20;;;;;;;-0.71;67.19;96845.37;104021;1351;22505;-58
2021/12/03 03:18:10;;;;;;;12.50;10.70;;;;;;;-0.76;67.32;96843.90;103956;1351;22607;-58
2021/12/03 03:20:41;;;;;;;14.80;11.60;;;;;;;-0.79;67.38;96844.73;104008;1351;23148;-59
2021/12/03 03:23:12;;;;;;;18.20;12.00;;;;;;;-0.81;67.41;96847.98;104009;1351;23125;-58
2021/12/03 03:25:41;;;;;;;12.30;8.70;;;;;;;-0.85;67.43;96848.16;103962;1351;22445;-59
2021/12/03 03:28:11;;;;;;;11.40;9.10;;;;;;;-0.82;68.11;96857.02;103990;1351;23314;-59
2021/12/03 03:30:43;;;;;;;12.20;9.20;;;;;;;-0.83;68.12;96856.52;104002;1351;22499;-59
2021/12/03 03:33:12;;;;;;;14.70;9.50;;;;;;;-0.84;68.09;96870.16;104014;1351;23520;-60
2021/12/03 03:35:40;;;;;;;12.50;9.30;;;;;;;-0.88;68.36;96872.88;104003;1351;22346;-58
2021/12/03 03:38:09;;;;;;;13.70;8.90;;;;;;;-0.90;68.59;96877.94;104021;1351;23115;-59
2021/12/03 03:40:39;;;;;;;12.10;8.60;;;;;;;-0.94;68.74;96881.04;104013;1350;22281;-60
2021/12/03 03:43:07;;;;;;;13.80;9.60;;;;;;;-0.93;69.06;96884.38;103995;1350;22432;-60
2021/12/03 03:45:38;;;;;;;14.70;9.70;;;;;;;-0.94;68.82;96881.88;103982;1351;22535;-60
2021/12/03 03:48:07;;;;;;;14.00;9.20;;;;;;;-0.96;68.88;96883.49;103996;1350;22544;-59
2021/12/03 03:50:36;;;;;;;13.60;9.20;;;;;;;-0.97;69.13;96886.81;103991;1348;23059;-60
2021/12/03 03:53:04;;;;;;;10.80;8.60;;;;;;;-1.00;69.41;96897.25;103978;1351;22992;-60
2021/12/03 03:55:33;;;;;;;11.10;8.30;;;;;;;-1.00;69.62;96904.03;103977;1351;23005;-60
2021/12/03 03:58:03;;;;;;;10.80;8.50;;;;;;;-1.00;69.59;96908.56;103970;1351;22419;-60
2021/12/03 04:00:36;;;;;;;13.60;9.00;;;;;;;-1.02;69.64;96909.61;104002;1351;22424;-60
2021/12/03 04:03:04;;;;;;;11.80;9.40;;;;;;;-1.03;69.69;96906.05;103989;1351;23128;-61
2021/12/03 04:05:32;;;;;;;12.50;8.70;;;;;;;-1.03;69.78;96906.05;103999;1348;23308;-60
2021/12/03 04:08:01;;;;;;;10.10;8.00;;;;;;;-1.04;70.19;96911.27;103990;1351;22343;-59
2021/12/03 04:10:29;;;;;;;11.40;8.20;;;;;;;-1.06;70.09;96914.17;103996;1351;23041;-60
2021/12/03 04:12:57;;;;;;;11.00;7.20;;;;;;;-1.07;70.10;96915.58;103999;1351;22478;-58
2021/12/03 04:15:26;;;;;;;13.50;10.10;;;;;;;-1.08;70.27;96913.41;104008;1351;22422;-58
2021/12/03 04:17:54;;;;;;;12.70;9.10;;;;;;;-1.11;70.28;96923.69;104002;1351;22336;-59
2021/12/03 04:20:22;;;;;;;11.00;8.80;;;;;;;-1.10;70.48;96928.81;103980;1351;22425;-58
2021/12/03 04:22:50;;;;;;;10.90;8.00;;;;;;;-1.07;70.65;96936.52;103991;1350;22266;-58
2021/12/03 04:25:21;;;;;;;14.80;8.20;;;;;;;-1.04;70.62;96944.86;103973;1351;22432;-58
2021/12/03 04:27:50;;;;;;;11.70;9.10;;;;;;;-1.03;70.53;96944.48;104009;1351;23470;-58
2021/12/03 04:30:22;;;;;;;11.10;8.80;;;;;;;-1.05;70.58;96956.44;103980;1351;22231;-58
2021/12/03 04:32:52;;;;;;;11.70;8.40;;;;;;;-1.09;70.44;96957.59;103963;1351;22291;-58
2021/12/03 04:35:20;;;;;;;11.20;8.50;;;;;;;-1.10;70.52;96961.17;104017;1351;22445;-58
2021/12/03 04:37:49;;;;;;;11.80;8.70;;;;;;;-1.08;70.86;96961.20;103981;1351;22485;-58
2021/12/03 04:40:18;;;;;;;12.10;9.20;;;;;;;-1.06;71.04;96964.46;103990;1351;22296;-58
2021/12/03 04:42:46;;;;;;;13.50;10.00;;;;;;;-1.06;70.89;96971.76;103985;1350;22780;-58
2021/12/03 04:45:18;;;;;;;14.40;11.10;;;;;;;-1.07;70.87;96976.64;103967;1350;22325;-59
2021/12/03 04:47:48;;;;;;;14.00;10.30;;;;;;;-1.12;70.95;96977.59;103985;1350;22428;-58
2021/12/03 04:50:19;;;;;;;12.50;9.60;;;;;;;-1.16;70.93;96975.27;103989;1351;22327;-59
2021/12/03 04:52:48;;;;;;;11.10;9.10;;;;;;;-1.16;70.94;96972.48;103993;1351;22323;-58
2021/12/03 04:55:17;;;;;;;13.00;10.00;;;;;;;-1.12;70.97;96971.89;103952;1351;23079;-58
2021/12/03 04:57:45;;;;;;;12.90;11.10;;;;;;;-1.09;71.24;96978.32;103936;1351;22327;-58
2021/12/03 05:00:18;;;;;;;13.50;10.90;;;;;;;-1.11;71.20;96978.34;103971;1351;22391;-59
2021/12/03 05:02:46;;;;;;;20.70;12.40;;;;;;;-1.10;71.18;96986.49;104003;1351;22342;-59
2021/12/03 05:05:15;;;;;;;12.60;10.70;;;;;;;-1.12;71.15;96989.70;103988;1351;22435;-58
2021/12/03 05:07:57;;;;;;;11.70;9.30;;;;;;;-1.12;71.34;96990.81;103998;1351;23398;-59
2021/12/03 05:10:28;;;;;;;12.30;10.10;;;;;;;-1.11;71.31;96999.29;103996;1351;22417;-59
2021/12/03 05:13:02;;;;;;;11.00;9.70;;;;;;;-1.06;71.58;97000.66;103995;1351;22418;-58
2021/12/03 05:15:33;;;;;;;11.80;9.60;;;;;;;-1.06;71.53;97003.30;103946;1351;22323;-59
2021/12/03 05:18:03;;;;;;;16.60;11.80;;;;;;;-1.09;71.48;97009.08;104007;1351;23075;-59
2021/12/03 05:20:33;;;;;;;14.60;10.70;;;;;;;-1.11;71.51;97006.21;104001;1351;22413;-58
2021/12/03 05:23:02;;;;;;;12.00;10.40;;;;;;;-1.13;71.75;97010.64;103968;1351;22464;-58
2021/12/03 05:25:33;;;;;;;14.40;11.40;;;;;;;-1.13;71.89;97007.83;103972;1351;22278;-58
2021/12/03 05:28:02;;;;;;;14.10;11.60;;;;;;;-1.13;71.66;97014.48;103998;1351;22327;-59
2021/12/03 05:30:31;;;;;;;14.90;11.80;;;;;;;-1.12;71.93;97021.27;104006;1351;22362;-58
2021/12/03 05:32:59;;;;;;;12.10;10.30;;;;;;;-1.14;71.93;97030.65;104007;1351;22987;-60
2021/12/03 05:35:27;;;;;;;13.60;10.80;;;;;;;-1.15;72.18;97033.50;103984;1351;23183;-60
2021/12/03 05:37:56;;;;;;;13.40;11.20;;;;;;;-1.16;72.17;97043.53;103977;1351;22231;-59
2021/12/03 05:40:25;;;;;;;14.10;11.40;;;;;;;-1.12;72.17;97053.85;104005;1351;23140;-59
2021/12/03 05:42:53;;;;;;;15.00;11.90;;;;;;;-1.13;72.03;97040.66;103999;1349;23178;-59
2021/12/03 05:45:26;;;;;;;14.00;12.00;;;;;;;-1.15;72.04;97040.91;104017;1351;22303;-58
2021/12/03 05:47:55;;;;;;;15.40;10.50;;;;;;;-1.15;71.86;97045.91;103998;1351;22427;-58
2021/12/03 05:50:24;;;;;;;11.70;9.50;;;;;;;-1.12;72.05;97048.72;103950;1351;22301;-58
2021/12/03 05:52:53;;;;;;;12.60;10.30;;;;;;;-1.07;72.26;97047.94;103999;1351;22434;-59
2021/12/03 05:55:21;;;;;;;15.10;11.90;;;;;;;-1.09;72.28;97051.24;104013;1351;22621;-59
2021/12/03 05:57:50;;;;;;;13.20;11.10;;;;;;;-1.10;72.08;97055.61;104011;1351;22565;-60
2021/12/03 06:00:41;;;;;;;14.30;11.70;;;;;;;-1.11;72.16;97060.10;103966;1351;22322;-59
2021/12/03 06:03:10;;;;;;;13.20;9.80;;;;;;;-1.12;72.30;97064.78;104008;1346;22641;-58
2021/12/03 06:05:41;;;;;;;12.40;10.90;;;;;;;-1.10;72.40;97062.21;103956;1351;22380;-59
2021/12/03 06:08:10;;;;;;;14.80;12.40;;;;;;;-1.08;72.50;97068.59;103986;1351;23320;-59
2021/12/03 06:10:38;;;;;;;17.60;12.50;;;;;;;-1.06;72.41;97076.19;104027;1351;22519;-60
2021/12/03 06:13:06;;;;;;;17.00;14.00;;;;;;;-1.07;72.33;97083.73;104002;1351;22454;-60
2021/12/03 06:15:34;;;;;;;14.40;13.00;;;;;;;-1.08;72.33;97088.59;103995;1351;22991;-58
2021/12/03 06:18:03;;;;;;;15.90;13.20;;;;;;;-1.08;72.49;97092.80;103982;1351;23144;-60
2021/12/03 06:20:33;;;;;;;16.10;12.90;;;;;;;-1.08;72.72;97103.60;103989;1351;22291;-59
2021/12/03 06:23:01;;;;;;;16.70;12.10;;;;;;;-1.12;72.72;97110.05;103973;1350;22388;-59
2021/12/03 06:25:29;;;;;;;15.30;13.20;;;;;;;-1.12;72.78;97113.58;104028;1351;22631;-59
2021/12/03 06:27:58;;;;;;;16.00;12.40;;;;;;;-1.16;72.60;97115.12;104008;1351;22568;-59
2021/12/03 06:30:27;;;;;;;16.50;11.40;;;;;;;-1.18;72.89;97115.41;104014;1351;22333;-60
2021/12/03 06:32:55;;;;;;;15.70;11.90;;;;;;;-1.19;73.06;97114.06;104028;1351;22718;-60
2021/12/03 06:35:24;;;;;;;16.00;12.70;;;;;;;-1.18;73.07;97122.61;103988;1351;22342;-60
2021/12/03 06:37:53;;;;;;;16.60;14.40;;;;;;;-1.16;73.36;97130.50;104012;1351;22975;-59
2021/12/03 06:40:25;;;;;;;17.60;14.60;;;;;;;-1.19;73.13;97135.00;104022;1351;22454;-58
2021/12/03 06:42:54;;;;;;;14.60;13.10;;;;;;;-1.21;73.35;97141.52;103993;1351;22535;-59
2021/12/03 06:45:22;;;;;;;17.50;12.50;;;;;;;-1.22;73.35;97143.95;103990;1351;22431;-59
2021/12/03 06:47:52;;;;;;;17.50;13.10;;;;;;;-1.20;73.43;97138.38;104005;1351;22365;-59
2021/12/03 06:50:21;;;;;;;17.20;13.60;;;;;;;-1.16;73.93;97137.11;103992;1351;22607;-59
2021/12/03 06:52:59;;;;;;;17.70;13.50;;;;;;;-1.16;73.77;97143.14;104021;1351;22444;-58
2021/12/03 06:55:28;;;;;;;18.60;13.80;;;;;;;-1.20;73.77;97148.10;104002;1351;22303;-63
2021/12/03 06:57:56;;;;;;;19.30;13.70;;;;;;;-1.21;73.72;97158.66;103993;1351;22319;-59
2021/12/03 07:00:25;;;;;;;19.40;13.20;;;;;;;-1.18;73.91;97162.31;104000;1351;22445;-58
2021/12/03 07:02:52;;;;;;;16.90;13.30;;;;;;;-1.13;73.97;97170.55;104003;1351;22531;-59
2021/12/03 07:05:21;;;;;;;19.30;13.70;;;;;;;-1.12;74.46;97175.98;103995;1351;22301;-59
2021/12/03 07:07:50;;;;;;;17.40;14.00;;;;;;;-1.17;74.40;97185.52;104018;1351;22332;-59
2021/12/03 07:10:18;;;;;;;16.00;12.70;;;;;;;-1.19;74.36;97188.98;103993;1351;22437;-58
2021/12/03 07:12:46;;;;;;;16.90;13.40;;;;;;;-1.21;74.69;97189.27;104008;1351;23800;-59
2021/12/03 07:15:15;;;;;;;22.20;15.40;;;;;;;-1.22;74.98;97188.83;104001;1351;22433;-59
2021/12/03 07:17:43;;;;;;;16.50;14.70;;;;;;;-1.23;74.87;97190.66;103980;1351;22778;-59
2021/12/03 07:20:12;;;;;;;17.50;14.10;;;;;;;-1.24;75.02;97205.14;103995;1351;23163;-58
2021/12/03 07:22:47;;;;;;;18.60;13.70;;;;;;;-1.25;74.93;97209.89;104010;1351;22373;-59
2021/12/03 07:25:19;;;;;;;18.40;14.40;;;;;;;-1.23;75.14;97211.77;103986;1351;22768;-59
2021/12/03 07:27:59;;;;;;;18.40;15.40;;;;;;;-1.20;75.25;97209.32;103997;1351;22339;-59
2021/12/03 07:30:43;;;;;;;21.90;17.20;;;;;;;-1.19;75.36;97212.63;103955;1351;23060;-59
2021/12/03 07:33:17;;;;;;;19.80;15.10;;;;;;;-1.19;75.52;97215.15;104010;1350;22295;-60
2021/12/03 07:35:46;;;;;;;13.30;11.40;;;;;;;-1.18;75.62;97228.19;103984;1351;22976;-60
2021/12/03 07:38:17;;;;;;;13.20;10.10;;;;;;;-1.17;75.15;97226.09;103984;1351;22446;-60
2021/12/03 07:40:46;;;;;;;14.10;11.30;;;;;;;-1.22;74.83;97233.61;104005;1351;22355;-59
2021/12/03 07:43:19;;;;;;;15.10;13.40;;;;;;;-1.25;75.03;97235.83;103998;1351;22344;-62
2021/12/03 07:45:52;;;;;;;17.70;14.90;;;;;;;-1.28;74.95;97238.38;103985;1351;23023;-60
2021/12/03 07:48:26;;;;;;;15.10;13.50;;;;;;;-1.26;75.00;97241.88;103973;1351;22430;-60
2021/12/03 07:51:00;;;;;;;18.10;15.40;;;;;;;-1.21;75.11;97247.36;104000;1351;22310;-60
2021/12/03 07:53:33;;;;;;;14.40;11.70;;;;;;;-1.18;75.09;97247.79;103997;1351;22282;-60
2021/12/03 07:56:08;;;;;;;15.70;13.00;;;;;;;-1.18;75.10;97256.30;104000;1351;23115;-59
2021/12/03 07:58:40;;;;;;;15.20;12.30;;;;;;;-1.21;75.06;97267.79;103998;1351;22441;-60
2021/12/03 08:01:14;;;;;;;17.30;12.30;;;;;;;-1.20;75.34;97269.59;103996;1351;22429;-59
2021/12/03 08:03:47;;;;;;;16.30;12.60;;;;;;;-1.16;75.27;97271.52;103993;1351;22963;-60
2021/12/03 08:06:22;;;;;;;20.20;15.50;;;;;;;-1.19;75.17;97267.45;103979;1351;22686;-59
2021/12/03 08:08:55;;;;;;;16.00;13.80;;;;;;;-1.18;74.98;97272.54;103985;1351;22311;-60
2021/12/03 08:11:28;;;;;;;15.70;11.40;;;;;;;-1.21;74.92;97279.50;103875;1344;138227;-60
2021/12/03 08:14:02;;;;;;;37.50;23.30;;;;;;;-1.22;75.04;97278.17;103954;1344;22857;-59
2021/12/03 08:16:35;;;;;;;20.20;14.70;;;;;;;-1.19;75.33;97286.84;103967;1354;23323;-59
2021/12/03 08:19:09;;;;;;;20.60;17.40;;;;;;;-1.23;75.13;97286.30;103943;1352;22450;-59
2021/12/03 08:21:43;;;;;;;19.80;16.60;;;;;;;-1.26;75.07;97287.46;103990;1349;22666;-59
2021/12/03 08:24:19;;;;;;;17.10;14.40;;;;;;;-1.27;75.22;97293.52;103928;1344;22569;-59
2021/12/03 08:26:51;;;;;;;15.90;12.60;;;;;;;-1.29;75.16;97308.61;103873;1344;22311;-60
2021/12/03 08:29:23;;;;;;;16.90;14.40;;;;;;;-1.28;75.20;97308.16;103959;1351;22404;-59
2021/12/03 08:31:53;;;;;;;17.20;14.40;;;;;;;-1.25;75.02;97307.98;103956;1344;22426;-58
2021/12/03 08:34:31;;;;;;;16.20;13.40;;;;;;;-1.24;74.95;97311.88;103976;1351;22317;-60
2021/12/03 08:37:07;;;;;;;14.90;11.30;;;;;;;-1.27;74.81;97311.23;103979;1351;22426;-60
2021/12/03 08:39:38;;;;;;;14.30;12.30;;;;;;;-1.27;74.84;97309.77;103985;1351;22350;-60
2021/12/03 08:42:12;;;;;;;13.70;12.00;;;;;;;-1.26;74.96;97314.48;103880;1349;139255;-60
2021/12/03 08:44:45;;;;;;;13.40;12.00;;;;;;;-1.25;74.94;97320.84;103932;1345;22456;-59
2021/12/03 08:47:18;;;;;;;14.70;12.40;;;;;;;-1.31;75.00;97326.37;103937;1344;22364;-59
2021/12/03 08:49:52;;;;;;;13.50;11.20;;;;;;;-1.30;74.99;97332.01;103961;1349;22337;-60
2021/12/03 08:54:57;;;;;;;14.60;12.70;;;;;;;-1.18;74.79;97342.42;103994;1349;22553;-59
2021/12/03 08:57:30;;;;;;;16.90;12.10;;;;;;;-1.14;74.68;97345.94;103922;1344;22309;-60
2021/12/03 09:00:19;;;;;;;14.10;11.30;;;;;;;-1.12;74.40;97345.07;103901;1344;22443;-59
2021/12/03 09:02:52;;;;;;;13.50;11.30;;;;;;;-1.10;74.43;97339.34;103940;1351;22470;-60
2021/12/03 09:05:20;;;;;;;12.60;10.40;;;;;;;-1.06;74.44;97336.09;103898;1345;22334;-59
2021/12/03 09:07:51;;;;;;;15.10;12.20;;;;;;;-1.04;74.20;97344.31;103917;1352;23392;-60
2021/12/03 09:10:32;;;;;;;24.40;22.00;;;;;;;-1.03;73.95;97351.95;103906;1352;22313;-60
2021/12/03 09:13:00;;;;;;;36.10;24.20;;;;;;;-1.01;74.06;97357.17;103909;1353;22268;-60
2021/12/03 09:15:38;;;;;;;26.50;20.80;;;;;;;-0.99;73.93;97359.70;103920;1354;22278;-60
2021/12/03 09:18:27;;;;;;;31.70;26.70;;;;;;;-0.92;73.95;97366.69;103873;1354;23053;-60
2021/12/03 09:21:27;;;;;;;23.50;19.20;;;;;;;-0.84;73.88;97370.33;103848;1354;22314;-60
2021/12/03 09:26:26;;;;;;;21.60;19.40;;;;;;;-0.84;73.29;97373.18;103946;1351;22326;-61
2021/12/03 09:29:04;;;;;;;11.20;9.00;;;;;;;-0.81;72.92;97371.90;103935;1345;22306;-59
2021/12/03 09:31:36;;;;;;;17.80;16.00;;;;;;;-0.78;72.91;97366.57;103874;1353;22631;-60
2021/12/03 09:34:09;;;;;;;18.20;16.10;;;;;;;-0.70;72.88;97364.42;103979;1352;23335;-60
2021/12/03 09:36:42;;;;;;;13.50;11.80;;;;;;;-0.64;72.59;97367.54;103966;1352;23036;-60
2021/12/03 09:39:19;;;;;;;25.60;21.70;;;;;;;-0.57;72.40;97368.28;103983;1352;22537;-60
2021/12/03 09:41:48;;;;;;;19.00;13.70;;;;;;;-0.54;72.30;97367.02;103909;1351;22484;-60
2021/12/03 09:44:17;;;;;;;21.00;18.20;;;;;;;-0.55;71.77;97369.70;103965;1352;22323;-61
2021/12/03 09:46:47;;;;;;;20.30;15.90;;;;;;;-0.56;71.16;97371.32;103926;1344;22311;-60
2021/12/03 09:54:53;;;;;;;44.00;28.50;;;;;;;-0.50;70.61;97367.45;103954;1352;22601;-64
2021/12/03 09:57:52;;;;;;;30.40;24.20;;;;;;;-0.46;70.77;97361.90;103962;1352;22552;-60
2021/12/03 10:19:59;;;;;;;17.60;15.80;;;;;;;-0.30;67.68;97351.04;103937;1352;22339;-60
2021/12/03 10:58:59;;;;;;;12.40;7.20;;;;;;;0.46;61.12;97352.95;103949;1352;22443;-62
2021/12/03 11:17:07;;;;;;;11.50;8.60;;;;;;;5.48;54.82;97349.52;103953;1352;22315;-59
2021/12/03 11:26:57;;;;;;;16.40;10.80;;;;;;;7.38;50.65;97342.34;103839;1354;22616;-60
2021/12/03 11:33:42;;;;;;;11.00;6.90;;;;;;;10.38;47.97;97331.67;103787;1354;23313;-60
2021/12/03 11:37:44;;;;;;;14.30;5.90;;;;;;;12.56;41.91;97324.76;103743;1354;22445;-59
2021/12/03 11:47:08;;;;;;;16.10;10.70;;;;;;;13.51;38.06;97317.70;103016;1361;22397;-61
2021/12/03 12:06:09;;;;;;;14.00;8.20;;;;;;;14.43;31.89;97317.91;103092;1360;22660;-60
2021/12/03 12:14:38;;;;;;;28.90;18.80;;;;;;;14.59;31.33;97312.42;103363;1360;23452;-59
2021/12/03 12:19:27;;;;;;;8.70;5.80;;;;;;;15.26;30.63;97314.51;103376;1360;22317;-61
2021/12/03 12:46:54;;;;;;;12.80;9.30;;;;;;;14.08;28.80;97329.20;103911;1352;22358;-59
2021/12/03 12:55:18;;;;;;;12.70;9.00;;;;;;;13.41;28.88;97334.96;103941;1352;22310;-59
2021/12/03 14:06:16;;;;;;;12.60;9.30;;;;;;;8.53;33.73;97391.69;103934;1347;23078;-59
2021/12/03 14:42:08;;;;;;;22.40;20.00;;;;;;;3.00;39.37;97436.16;103926;1351;22506;-59
2021/12/03 14:44:56;;;;;;;33.40;30.00;;;;;;;2.49;39.86;97443.68;103948;1351;22583;-59
2021/12/03 14:47:42;;;;;;;34.60;30.40;;;;;;;2.04;40.56;97449.66;103975;1351;22492;-60
2021/12/03 14:55:47;;;;;;;30.80;25.90;;;;;;;1.04;42.42;97444.75;103942;1351;22349;-59
2021/12/03 14:58:21;;;;;;;33.30;27.10;;;;;;;0.84;43.73;97448.08;103951;1351;22318;-58
2021/12/03 15:00:57;;;;;;;35.30;31.40;;;;;;;0.65;43.74;97450.32;103903;1345;22512;-57
2021/12/03 15:03:49;;;;;;;37.20;33.00;;;;;;;0.50;44.34;97456.16;103967;1351;22314;-58
2021/12/03 15:06:38;;;;;;;42.60;35.90;;;;;;;0.35;44.49;97455.17;103914;1351;22339;-60
2021/12/03 15:09:17;;;;;;;40.40;35.50;;;;;;;0.20;44.43;97452.46;103960;1351;22472;-59
2021/12/03 15:15:05;;;;;;;46.90;40.70;;;;;;;-0.03;44.78;97459.48;103948;1351;22455;-59
2021/12/03 15:20:27;;;;;;;53.00;43.10;;;;;;;-0.22;45.43;97461.36;103957;1351;22394;-58
2021/12/03 15:26:06;;;;;;;48.20;43.10;;;;;;;-0.35;45.07;97468.87;103741;1344;22440;-58
2021/12/03 15:31:45;;;;;;;64.30;57.60;;;;;;;-0.47;46.08;97471.95;103929;1352;22444;-59
2021/12/03 15:37:06;;;;;;;57.00;50.40;;;;;;;-0.56;45.24;97467.08;103946;1352;22476;-58
2021/12/03 16:03:45;;;;;;;95.90;65.50;;;;;;;-1.03;48.49;97489.30;103935;1352;22339;-59
2021/12/03 16:06:29;;;;;;;97.20;69.50;;;;;;;-1.07;49.02;97494.63;103875;1344;22411;-59
2021/12/03 16:09:06;;;;;;;94.80;66.80;;;;;;;-1.11;48.33;97505.22;103776;1344;22439;-59
2021/12/03 16:22:43;;;;;;;62.20;49.50;;;;;;;-1.25;51.45;97518.77;103882;1352;22413;-60
2021/12/03 16:52:16;;;;;;;60.90;50.60;;;;;;;-1.44;54.25;97542.14;103935;1352;23614;-58
2021/12/03 16:55:04;;;;;;;49.10;43.40;;;;;;;-1.43;54.16;97539.36;103938;1352;22352;-58
2021/12/03 16:57:35;;;;;;;51.40;44.30;;;;;;;-1.39;54.64;97545.48;103934;1352;22593;-58
2021/12/03 17:00:36;;;;;;;54.00;48.20;;;;;;;-1.35;55.45;97545.73;103920;1353;22369;-58
2021/12/03 17:03:10;;;;;;;47.50;42.50;;;;;;;-1.35;55.43;97539.59;103919;1348;22710;-58
2021/12/03 17:30:41;;;;;;;42.80;37.70;;;;;;;-1.62;55.48;97556.44;103926;1352;22432;-58
2021/12/03 17:49:29;;;;;;;35.70;32.00;;;;;;;-1.60;57.02;97561.34;103811;1354;22323;-58
2021/12/03 17:52:18;;;;;;;39.10;34.90;;;;;;;-1.63;56.54;97557.67;103874;1353;22441;-58
2021/12/03 18:03:11;;;;;;;96.50;86.40;;;;;;;-1.76;56.20;97558.01;103956;1349;22551;-59
2021/12/03 18:08:29;;;;;;;51.90;45.90;;;;;;;-1.81;56.67;97559.82;103896;1351;22452;-58